sensor_id;sensor_type;location;lat;lon;timestamp;P1;durP1;ratioP1;P2;durP2;ratioP2
40847;SDS011;26570;50.962;5.340;2023-04-15T00:02:41;14.20;;;4.17;;
40847;SDS011;26570;50.962;5.340;2023-04-15T00:05:30;8.13;;;3.40;;
40847;SDS011;26570;50.962;5.340;2023-04-15T00:08:16;8.20;;;3.90;;
40847;SDS011;26570;50.962;5.340;2023-04-15T00:11:01;7.17;;;2.87;;
40847;SDS011;26570;50.962;5.340;2023-04-15T00:13:49;12.03;;;2.57;;
40847;SDS011;26570;50.962;5.340;2023-04-15T00:16:34;6.67;;;3.13;;
40847;SDS011;26570;50.962;5.340;2023-04-15T00:19:41;12.33;;;3.40;;
40847;SDS011;26570;50.962;5.340;2023-04-15T00:22:28;11.10;;;2.60;;
40847;SDS011;26570;50.962;5.340;2023-04-15T00:25:13;6.87;;;2.27;;
40847;SDS011;26570;50.962;5.340;2023-04-15T00:27:59;10.93;;;3.10;;
40847;SDS011;26570;50.962;5.340;2023-04-15T00:30:44;6.60;;;2.40;;
40847;SDS011;26570;50.962;5.340;2023-04-15T00:33:29;7.30;;;2.13;;
40847;SDS011;26570;50.962;5.340;2023-04-15T00:36:15;7.13;;;1.93;;
40847;SDS011;26570;50.962;5.340;2023-04-15T00:39:00;8.63;;;2.43;;
40847;SDS011;26570;50.962;5.340;2023-04-15T00:41:46;7.63;;;2.20;;
40847;SDS011;26570;50.962;5.340;2023-04-15T00:44:32;7.67;;;1.43;;
40847;SDS011;26570;50.962;5.340;2023-04-15T00:47:40;6.23;;;2.07;;
40847;SDS011;26570;50.962;5.340;2023-04-15T00:50:27;8.07;;;1.87;;
40847;SDS011;26570;50.962;5.340;2023-04-15T00:53:13;10.17;;;2.30;;
40847;SDS011;26570;50.962;5.340;2023-04-15T00:55:58;6.90;;;1.70;;
40847;SDS011;26570;50.962;5.340;2023-04-15T00:58:43;8.37;;;1.60;;
40847;SDS011;26570;50.962;5.340;2023-04-15T01:01:29;10.60;;;1.97;;
40847;SDS011;26570;50.962;5.340;2023-04-15T01:04:14;4.07;;;1.33;;
40847;SDS011;26570;50.962;5.340;2023-04-15T01:07:00;6.20;;;1.53;;
40847;SDS011;26570;50.962;5.340;2023-04-15T01:09:45;8.03;;;1.50;;
40847;SDS011;26570;50.962;5.340;2023-04-15T01:12:31;3.60;;;1.37;;
40847;SDS011;26570;50.962;5.340;2023-04-15T01:15:17;4.80;;;1.53;;
40847;SDS011;26570;50.962;5.340;2023-04-15T01:18:03;5.43;;;1.83;;
40847;SDS011;26570;50.962;5.340;2023-04-15T01:20:49;5.73;;;2.03;;
40847;SDS011;26570;50.962;5.340;2023-04-15T01:23:35;9.37;;;2.40;;
40847;SDS011;26570;50.962;5.340;2023-04-15T01:26:21;7.60;;;1.30;;
40847;SDS011;26570;50.962;5.340;2023-04-15T01:29:14;4.03;;;1.10;;
40847;SDS011;26570;50.962;5.340;2023-04-15T01:32:00;4.90;;;1.50;;
40847;SDS011;26570;50.962;5.340;2023-04-15T01:34:48;8.33;;;1.70;;
40847;SDS011;26570;50.962;5.340;2023-04-15T01:37:33;4.97;;;1.13;;
40847;SDS011;26570;50.962;5.340;2023-04-15T01:40:19;8.00;;;1.60;;
40847;SDS011;26570;50.962;5.340;2023-04-15T01:43:06;4.90;;;1.10;;
40847;SDS011;26570;50.962;5.340;2023-04-15T01:45:51;5.50;;;1.23;;
40847;SDS011;26570;50.962;5.340;2023-04-15T01:48:36;5.03;;;1.10;;
40847;SDS011;26570;50.962;5.340;2023-04-15T01:51:21;6.27;;;1.40;;
40847;SDS011;26570;50.962;5.340;2023-04-15T01:54:06;4.37;;;1.20;;
40847;SDS011;26570;50.962;5.340;2023-04-15T01:56:52;5.37;;;0.90;;
40847;SDS011;26570;50.962;5.340;2023-04-15T01:59:37;5.90;;;1.10;;
40847;SDS011;26570;50.962;5.340;2023-04-15T02:02:22;5.13;;;0.93;;
40847;SDS011;26570;50.962;5.340;2023-04-15T02:05:07;4.83;;;1.00;;
40847;SDS011;26570;50.962;5.340;2023-04-15T02:07:58;4.03;;;1.00;;
40847;SDS011;26570;50.962;5.340;2023-04-15T02:10:47;5.17;;;0.90;;
40847;SDS011;26570;50.962;5.340;2023-04-15T02:13:32;4.30;;;0.90;;
40847;SDS011;26570;50.962;5.340;2023-04-15T02:16:18;5.07;;;1.10;;
40847;SDS011;26570;50.962;5.340;2023-04-15T02:19:03;3.40;;;0.90;;
40847;SDS011;26570;50.962;5.340;2023-04-15T02:21:48;9.20;;;1.10;;
40847;SDS011;26570;50.962;5.340;2023-04-15T02:24:33;4.13;;;1.13;;
40847;SDS011;26570;50.962;5.340;2023-04-15T02:27:19;6.07;;;1.30;;
40847;SDS011;26570;50.962;5.340;2023-04-15T02:30:06;3.93;;;0.83;;
40847;SDS011;26570;50.962;5.340;2023-04-15T02:32:52;6.03;;;1.30;;
40847;SDS011;26570;50.962;5.340;2023-04-15T02:35:37;8.97;;;1.20;;
40847;SDS011;26570;50.962;5.340;2023-04-15T02:38:26;3.67;;;0.93;;
40847;SDS011;26570;50.962;5.340;2023-04-15T02:41:12;3.87;;;1.07;;
40847;SDS011;26570;50.962;5.340;2023-04-15T02:43:57;5.97;;;1.10;;
40847;SDS011;26570;50.962;5.340;2023-04-15T02:47:05;3.67;;;1.03;;
40847;SDS011;26570;50.962;5.340;2023-04-15T02:49:51;3.93;;;1.10;;
40847;SDS011;26570;50.962;5.340;2023-04-15T02:52:38;4.13;;;1.10;;
40847;SDS011;26570;50.962;5.340;2023-04-15T02:55:24;5.00;;;1.07;;
40847;SDS011;26570;50.962;5.340;2023-04-15T02:58:09;4.83;;;1.07;;
40847;SDS011;26570;50.962;5.340;2023-04-15T03:00:55;3.57;;;1.13;;
40847;SDS011;26570;50.962;5.340;2023-04-15T03:03:41;6.87;;;1.10;;
40847;SDS011;26570;50.962;5.340;2023-04-15T03:06:26;3.73;;;0.90;;
40847;SDS011;26570;50.962;5.340;2023-04-15T03:09:11;6.77;;;1.03;;
40847;SDS011;26570;50.962;5.340;2023-04-15T03:11:57;4.87;;;1.10;;
40847;SDS011;26570;50.962;5.340;2023-04-15T03:14:42;4.53;;;1.57;;
40847;SDS011;26570;50.962;5.340;2023-04-15T03:17:27;4.43;;;1.00;;
40847;SDS011;26570;50.962;5.340;2023-04-15T03:20:13;3.73;;;1.13;;
40847;SDS011;26570;50.962;5.340;2023-04-15T03:22:58;6.80;;;0.97;;
40847;SDS011;26570;50.962;5.340;2023-04-15T03:25:44;6.40;;;0.90;;
40847;SDS011;26570;50.962;5.340;2023-04-15T03:28:29;4.40;;;1.20;;
40847;SDS011;26570;50.962;5.340;2023-04-15T03:31:16;7.23;;;1.20;;
40847;SDS011;26570;50.962;5.340;2023-04-15T03:34:01;4.27;;;1.10;;
40847;SDS011;26570;50.962;5.340;2023-04-15T03:36:46;4.70;;;1.00;;
40847;SDS011;26570;50.962;5.340;2023-04-15T03:39:31;8.47;;;1.00;;
40847;SDS011;26570;50.962;5.340;2023-04-15T03:42:17;4.17;;;0.90;;
40847;SDS011;26570;50.962;5.340;2023-04-15T03:45:02;3.83;;;1.00;;
40847;SDS011;26570;50.962;5.340;2023-04-15T03:47:48;5.10;;;1.33;;
40847;SDS011;26570;50.962;5.340;2023-04-15T03:50:34;5.43;;;1.23;;
40847;SDS011;26570;50.962;5.340;2023-04-15T03:53:19;4.50;;;1.20;;
40847;SDS011;26570;50.962;5.340;2023-04-15T03:56:05;5.80;;;1.23;;
40847;SDS011;26570;50.962;5.340;2023-04-15T03:58:51;4.50;;;1.00;;
40847;SDS011;26570;50.962;5.340;2023-04-15T04:01:36;4.03;;;0.97;;
40847;SDS011;26570;50.962;5.340;2023-04-15T04:04:21;6.50;;;1.70;;
40847;SDS011;26570;50.962;5.340;2023-04-15T04:07:06;5.53;;;1.13;;
40847;SDS011;26570;50.962;5.340;2023-04-15T04:09:52;5.63;;;1.10;;
40847;SDS011;26570;50.962;5.340;2023-04-15T04:12:37;5.43;;;0.90;;
40847;SDS011;26570;50.962;5.340;2023-04-15T04:15:23;4.77;;;0.93;;
40847;SDS011;26570;50.962;5.340;2023-04-15T04:18:08;6.27;;;1.00;;
40847;SDS011;26570;50.962;5.340;2023-04-15T04:20:53;6.40;;;1.20;;
40847;SDS011;26570;50.962;5.340;2023-04-15T04:23:39;5.33;;;1.00;;
40847;SDS011;26570;50.962;5.340;2023-04-15T04:26:24;4.07;;;0.90;;
40847;SDS011;26570;50.962;5.340;2023-04-15T04:29:09;5.57;;;1.80;;
40847;SDS011;26570;50.962;5.340;2023-04-15T04:31:54;4.83;;;0.90;;
40847;SDS011;26570;50.962;5.340;2023-04-15T04:34:40;7.00;;;1.27;;
40847;SDS011;26570;50.962;5.340;2023-04-15T04:37:25;6.77;;;0.90;;
40847;SDS011;26570;50.962;5.340;2023-04-15T04:40:11;5.33;;;1.00;;
40847;SDS011;26570;50.962;5.340;2023-04-15T04:42:57;4.53;;;0.97;;
40847;SDS011;26570;50.962;5.340;2023-04-15T04:45:42;5.67;;;1.00;;
40847;SDS011;26570;50.962;5.340;2023-04-15T04:48:50;5.57;;;1.10;;
40847;SDS011;26570;50.962;5.340;2023-04-15T04:51:58;6.53;;;1.20;;
40847;SDS011;26570;50.962;5.340;2023-04-15T04:54:43;5.30;;;1.40;;
40847;SDS011;26570;50.962;5.340;2023-04-15T04:57:32;2.33;;;0.90;;
40847;SDS011;26570;50.962;5.340;2023-04-15T05:00:41;11.13;;;1.00;;
40847;SDS011;26570;50.962;5.340;2023-04-15T05:03:27;5.50;;;1.20;;
40847;SDS011;26570;50.962;5.340;2023-04-15T05:06:13;9.70;;;1.27;;
40847;SDS011;26570;50.962;5.340;2023-04-15T05:08:59;9.93;;;1.47;;
40847;SDS011;26570;50.962;5.340;2023-04-15T05:11:45;5.23;;;1.20;;
40847;SDS011;26570;50.962;5.340;2023-04-15T05:14:53;6.37;;;1.67;;
40847;SDS011;26570;50.962;5.340;2023-04-15T05:17:38;8.03;;;1.77;;
40847;SDS011;26570;50.962;5.340;2023-04-15T05:20:23;5.43;;;1.60;;
40847;SDS011;26570;50.962;5.340;2023-04-15T05:23:09;5.63;;;1.50;;
40847;SDS011;26570;50.962;5.340;2023-04-15T05:25:54;5.37;;;1.83;;
40847;SDS011;26570;50.962;5.340;2023-04-15T05:28:40;8.17;;;1.70;;
40847;SDS011;26570;50.962;5.340;2023-04-15T05:31:25;12.33;;;1.80;;
40847;SDS011;26570;50.962;5.340;2023-04-15T05:34:11;8.00;;;1.50;;
40847;SDS011;26570;50.962;5.340;2023-04-15T05:36:59;8.77;;;1.80;;
40847;SDS011;26570;50.962;5.340;2023-04-15T05:40:07;10.03;;;2.10;;
40847;SDS011;26570;50.962;5.340;2023-04-15T05:42:54;10.47;;;1.50;;
40847;SDS011;26570;50.962;5.340;2023-04-15T05:45:40;12.87;;;2.53;;
40847;SDS011;26570;50.962;5.340;2023-04-15T05:48:25;11.37;;;2.17;;
40847;SDS011;26570;50.962;5.340;2023-04-15T05:51:10;8.03;;;2.57;;
40847;SDS011;26570;50.962;5.340;2023-04-15T05:54:18;9.37;;;2.17;;
40847;SDS011;26570;50.962;5.340;2023-04-15T05:57:03;10.07;;;2.53;;
40847;SDS011;26570;50.962;5.340;2023-04-15T05:59:48;15.70;;;2.23;;
40847;SDS011;26570;50.962;5.340;2023-04-15T06:02:36;9.23;;;2.40;;
40847;SDS011;26570;50.962;5.340;2023-04-15T06:05:20;9.87;;;2.83;;
40847;SDS011;26570;50.962;5.340;2023-04-15T06:08:06;8.67;;;2.83;;
40847;SDS011;26570;50.962;5.340;2023-04-15T06:10:51;11.77;;;3.20;;
40847;SDS011;26570;50.962;5.340;2023-04-15T06:13:36;11.93;;;2.47;;
40847;SDS011;26570;50.962;5.340;2023-04-15T06:16:22;10.53;;;2.83;;
40847;SDS011;26570;50.962;5.340;2023-04-15T06:19:07;10.67;;;2.57;;
40847;SDS011;26570;50.962;5.340;2023-04-15T06:21:52;7.47;;;3.03;;
40847;SDS011;26570;50.962;5.340;2023-04-15T06:24:37;8.03;;;2.57;;
40847;SDS011;26570;50.962;5.340;2023-04-15T06:27:23;7.67;;;3.00;;
40847;SDS011;26570;50.962;5.340;2023-04-15T06:30:09;9.47;;;3.37;;
40847;SDS011;26570;50.962;5.340;2023-04-15T06:32:55;5.97;;;3.40;;
40847;SDS011;26570;50.962;5.340;2023-04-15T06:35:40;8.33;;;2.97;;
40847;SDS011;26570;50.962;5.340;2023-04-15T06:38:25;10.73;;;2.87;;
40847;SDS011;26570;50.962;5.340;2023-04-15T06:41:13;12.70;;;3.80;;
40847;SDS011;26570;50.962;5.340;2023-04-15T06:43:58;9.43;;;3.23;;
40847;SDS011;26570;50.962;5.340;2023-04-15T06:46:46;12.37;;;2.97;;
40847;SDS011;26570;50.962;5.340;2023-04-15T06:49:32;10.00;;;3.63;;
40847;SDS011;26570;50.962;5.340;2023-04-15T06:52:18;5.47;;;2.87;;
40847;SDS011;26570;50.962;5.340;2023-04-15T06:55:06;9.70;;;2.60;;
40847;SDS011;26570;50.962;5.340;2023-04-15T06:57:55;10.40;;;2.53;;
40847;SDS011;26570;50.962;5.340;2023-04-15T07:00:40;9.87;;;2.47;;
40847;SDS011;26570;50.962;5.340;2023-04-15T07:03:25;7.40;;;2.07;;
40847;SDS011;26570;50.962;5.340;2023-04-15T07:06:10;7.10;;;2.43;;
40847;SDS011;26570;50.962;5.340;2023-04-15T07:09:01;6.47;;;2.17;;
40847;SDS011;26570;50.962;5.340;2023-04-15T07:11:48;8.15;;;2.20;;
40847;SDS011;26570;50.962;5.340;2023-04-15T07:14:36;4.70;;;1.77;;
40847;SDS011;26570;50.962;5.340;2023-04-15T07:17:21;5.72;;;1.38;;
40847;SDS011;26570;50.962;5.340;2023-04-15T07:20:06;6.20;;;1.42;;
40847;SDS011;26570;50.962;5.340;2023-04-15T07:22:58;5.93;;;1.65;;
40847;SDS011;26570;50.962;5.340;2023-04-15T07:25:42;6.93;;;1.52;;
40847;SDS011;26570;50.962;5.340;2023-04-15T07:28:28;6.07;;;1.40;;
40847;SDS011;26570;50.962;5.340;2023-04-15T07:31:14;4.68;;;1.10;;
40847;SDS011;26570;50.962;5.340;2023-04-15T07:34:01;3.55;;;1.00;;
40847;SDS011;26570;50.962;5.340;2023-04-15T07:37:11;4.28;;;1.30;;
40847;SDS011;26570;50.962;5.340;2023-04-15T07:40:20;5.07;;;1.30;;
40847;SDS011;26570;50.962;5.340;2023-04-15T07:43:17;4.82;;;1.30;;
40847;SDS011;26570;50.962;5.340;2023-04-15T07:46:05;7.25;;;1.23;;
40847;SDS011;26570;50.962;5.340;2023-04-15T07:49:13;3.45;;;1.13;;
40847;SDS011;26570;50.962;5.340;2023-04-15T07:51:59;7.45;;;1.42;;
40847;SDS011;26570;50.962;5.340;2023-04-15T07:54:46;4.32;;;1.73;;
40847;SDS011;26570;50.962;5.340;2023-04-15T07:57:32;5.30;;;1.92;;
40847;SDS011;26570;50.962;5.340;2023-04-15T08:00:18;5.75;;;1.83;;
40847;SDS011;26570;50.962;5.340;2023-04-15T08:03:04;6.20;;;2.88;;
40847;SDS011;26570;50.962;5.340;2023-04-15T08:05:50;7.85;;;2.55;;
40847;SDS011;26570;50.962;5.340;2023-04-15T08:08:58;6.80;;;2.83;;
40847;SDS011;26570;50.962;5.340;2023-04-15T08:11:45;4.75;;;3.55;;
40847;SDS011;26570;50.962;5.340;2023-04-15T08:14:33;7.05;;;3.63;;
40847;SDS011;26570;50.962;5.340;2023-04-15T08:17:19;6.50;;;4.45;;
40847;SDS011;26570;50.962;5.340;2023-04-15T08:20:05;6.68;;;4.20;;
40847;SDS011;26570;50.962;5.340;2023-04-15T08:22:51;9.82;;;5.05;;
40847;SDS011;26570;50.962;5.340;2023-04-15T08:25:37;7.40;;;5.60;;
40847;SDS011;26570;50.962;5.340;2023-04-15T08:28:23;8.68;;;5.35;;
40847;SDS011;26570;50.962;5.340;2023-04-15T08:31:09;9.43;;;5.28;;
40847;SDS011;26570;50.962;5.340;2023-04-15T08:33:56;6.57;;;4.63;;
40847;SDS011;26570;50.962;5.340;2023-04-15T08:36:43;5.95;;;4.13;;
40847;SDS011;26570;50.962;5.340;2023-04-15T08:39:28;6.85;;;4.18;;
40847;SDS011;26570;50.962;5.340;2023-04-15T08:42:18;8.48;;;4.45;;
40847;SDS011;26570;50.962;5.340;2023-04-15T08:45:33;4.93;;;3.83;;
40847;SDS011;26570;50.962;5.340;2023-04-15T08:48:21;6.50;;;3.53;;
40847;SDS011;26570;50.962;5.340;2023-04-15T08:51:07;4.30;;;2.85;;
40847;SDS011;26570;50.962;5.340;2023-04-15T08:53:54;7.93;;;2.70;;
40847;SDS011;26570;50.962;5.340;2023-04-15T08:56:39;5.28;;;3.20;;
40847;SDS011;26570;50.962;5.340;2023-04-15T08:59:48;5.32;;;3.13;;
40847;SDS011;26570;50.962;5.340;2023-04-15T09:02:34;4.10;;;3.38;;
40847;SDS011;26570;50.962;5.340;2023-04-15T09:05:20;3.50;;;2.88;;
40847;SDS011;26570;50.962;5.340;2023-04-15T09:08:06;5.95;;;2.85;;
40847;SDS011;26570;50.962;5.340;2023-04-15T09:10:52;4.80;;;2.70;;
40847;SDS011;26570;50.962;5.340;2023-04-15T09:13:38;4.35;;;2.85;;
40847;SDS011;26570;50.962;5.340;2023-04-15T09:16:23;5.22;;;2.75;;
40847;SDS011;26570;50.962;5.340;2023-04-15T09:19:32;6.85;;;2.50;;
40847;SDS011;26570;50.962;5.340;2023-04-15T09:22:18;6.13;;;3.00;;
40847;SDS011;26570;50.962;5.340;2023-04-15T09:28:23;4.50;;;2.37;;
40847;SDS011;26570;50.962;5.340;2023-04-15T09:31:12;4.07;;;2.13;;
40847;SDS011;26570;50.962;5.340;2023-04-15T09:34:20;4.07;;;2.33;;
40847;SDS011;26570;50.962;5.340;2023-04-15T09:37:05;5.53;;;3.30;;
40847;SDS011;26570;50.962;5.340;2023-04-15T09:39:51;4.33;;;3.10;;
40847;SDS011;26570;50.962;5.340;2023-04-15T09:42:52;3.40;;;3.10;;
40847;SDS011;26570;50.962;5.340;2023-04-15T09:45:52;5.37;;;3.60;;
40847;SDS011;26570;50.962;5.340;2023-04-15T09:48:37;4.05;;;2.63;;
40847;SDS011;26570;50.962;5.340;2023-04-15T09:51:45;3.90;;;2.73;;
40847;SDS011;26570;50.962;5.340;2023-04-15T09:54:35;4.10;;;2.43;;
40847;SDS011;26570;50.962;5.340;2023-04-15T09:57:21;5.17;;;2.07;;
40847;SDS011;26570;50.962;5.340;2023-04-15T10:00:08;2.40;;;1.30;;
40847;SDS011;26570;50.962;5.340;2023-04-15T10:02:55;3.40;;;1.10;;
40847;SDS011;26570;50.962;5.340;2023-04-15T10:05:40;4.17;;;1.03;;
40847;SDS011;26570;50.962;5.340;2023-04-15T10:08:27;3.97;;;1.17;;
40847;SDS011;26570;50.962;5.340;2023-04-15T10:11:16;4.97;;;1.77;;
40847;SDS011;26570;50.962;5.340;2023-04-15T10:14:03;3.53;;;0.87;;
40847;SDS011;26570;50.962;5.340;2023-04-15T10:16:49;1.37;;;0.70;;
40847;SDS011;26570;50.962;5.340;2023-04-15T10:19:36;1.80;;;0.60;;
40847;SDS011;26570;50.962;5.340;2023-04-15T10:22:22;4.43;;;0.70;;
40847;SDS011;26570;50.962;5.340;2023-04-15T10:25:09;2.17;;;0.60;;
40847;SDS011;26570;50.962;5.340;2023-04-15T10:27:56;3.23;;;0.50;;
40847;SDS011;26570;50.962;5.340;2023-04-15T10:30:41;3.33;;;0.77;;
40847;SDS011;26570;50.962;5.340;2023-04-15T10:33:27;2.73;;;0.67;;
40847;SDS011;26570;50.962;5.340;2023-04-15T10:36:13;2.93;;;0.60;;
40847;SDS011;26570;50.962;5.340;2023-04-15T10:38:59;3.03;;;0.70;;
40847;SDS011;26570;50.962;5.340;2023-04-15T10:41:47;3.67;;;0.80;;
40847;SDS011;26570;50.962;5.340;2023-04-15T10:44:50;1.83;;;0.50;;
40847;SDS011;26570;50.962;5.340;2023-04-15T10:48:03;1.80;;;0.80;;
40847;SDS011;26570;50.962;5.340;2023-04-15T10:51:14;2.97;;;0.70;;
40847;SDS011;26570;50.962;5.340;2023-04-15T10:53:59;2.47;;;0.80;;
40847;SDS011;26570;50.962;5.340;2023-04-15T10:56:45;2.53;;;1.00;;
40847;SDS011;26570;50.962;5.340;2023-04-15T11:02:47;2.70;;;0.80;;
40847;SDS011;26570;50.962;5.340;2023-04-15T11:08:55;2.97;;;0.73;;
40847;SDS011;26570;50.962;5.340;2023-04-15T11:14:55;2.37;;;0.87;;
40847;SDS011;26570;50.962;5.340;2023-04-15T11:17:41;2.13;;;0.90;;
40847;SDS011;26570;50.962;5.340;2023-04-15T11:20:26;2.37;;;0.80;;
40847;SDS011;26570;50.962;5.340;2023-04-15T11:23:16;1.60;;;0.70;;
40847;SDS011;26570;50.962;5.340;2023-04-15T11:26:07;2.43;;;0.87;;
40847;SDS011;26570;50.962;5.340;2023-04-15T11:28:55;2.23;;;0.60;;
40847;SDS011;26570;50.962;5.340;2023-04-15T11:31:45;1.37;;;0.50;;
40847;SDS011;26570;50.962;5.340;2023-04-15T11:34:32;1.67;;;0.50;;
40847;SDS011;26570;50.962;5.340;2023-04-15T11:37:26;3.30;;;0.70;;
40847;SDS011;26570;50.962;5.340;2023-04-15T11:40:38;2.20;;;0.70;;
40847;SDS011;26570;50.962;5.340;2023-04-15T11:43:25;2.30;;;0.50;;
40847;SDS011;26570;50.962;5.340;2023-04-15T11:46:11;1.30;;;0.50;;
40847;SDS011;26570;50.962;5.340;2023-04-15T11:49:26;1.97;;;0.30;;
40847;SDS011;26570;50.962;5.340;2023-04-15T11:52:13;0.70;;;0.30;;
40847;SDS011;26570;50.962;5.340;2023-04-15T11:55:02;1.60;;;0.30;;
40847;SDS011;26570;50.962;5.340;2023-04-15T11:57:49;5.40;;;0.40;;
40847;SDS011;26570;50.962;5.340;2023-04-15T12:00:34;1.03;;;0.30;;
40847;SDS011;26570;50.962;5.340;2023-04-15T12:03:22;0.83;;;0.40;;
40847;SDS011;26570;50.962;5.340;2023-04-15T12:06:16;1.52;;;0.50;;
40847;SDS011;26570;50.962;5.340;2023-04-15T12:11:51;0.80;;;0.30;;
40847;SDS011;26570;50.962;5.340;2023-04-15T12:14:41;1.70;;;0.30;;
40847;SDS011;26570;50.962;5.340;2023-04-15T12:17:28;1.10;;;0.30;;
40847;SDS011;26570;50.962;5.340;2023-04-15T12:20:19;0.93;;;0.30;;
40847;SDS011;26570;50.962;5.340;2023-04-15T12:23:08;1.00;;;0.40;;
40847;SDS011;26570;50.962;5.340;2023-04-15T12:25:55;2.70;;;0.40;;
40847;SDS011;26570;50.962;5.340;2023-04-15T12:28:44;0.60;;;0.20;;
40847;SDS011;26570;50.962;5.340;2023-04-15T12:31:31;0.87;;;0.20;;
40847;SDS011;26570;50.962;5.340;2023-04-15T12:34:18;1.03;;;0.30;;
40847;SDS011;26570;50.962;5.340;2023-04-15T12:37:11;0.90;;;0.30;;
40847;SDS011;26570;50.962;5.340;2023-04-15T12:39:57;2.37;;;0.40;;
40847;SDS011;26570;50.962;5.340;2023-04-15T12:42:42;1.40;;;0.40;;
40847;SDS011;26570;50.962;5.340;2023-04-15T12:45:28;0.70;;;0.30;;
40847;SDS011;26570;50.962;5.340;2023-04-15T12:48:14;1.23;;;0.30;;
40847;SDS011;26570;50.962;5.340;2023-04-15T12:50:59;1.07;;;0.30;;
40847;SDS011;26570;50.962;5.340;2023-04-15T12:53:44;4.27;;;0.30;;
40847;SDS011;26570;50.962;5.340;2023-04-15T12:56:31;1.47;;;0.30;;
40847;SDS011;26570;50.962;5.340;2023-04-15T12:59:17;1.00;;;0.40;;
40847;SDS011;26570;50.962;5.340;2023-04-15T13:02:03;3.77;;;0.30;;
40847;SDS011;26570;50.962;5.340;2023-04-15T13:04:48;1.50;;;0.40;;
40847;SDS011;26570;50.962;5.340;2023-04-15T13:07:34;1.40;;;0.40;;
40847;SDS011;26570;50.962;5.340;2023-04-15T13:10:19;1.50;;;0.40;;
40847;SDS011;26570;50.962;5.340;2023-04-15T13:13:05;1.27;;;0.40;;
40847;SDS011;26570;50.962;5.340;2023-04-15T13:15:51;0.73;;;0.30;;
40847;SDS011;26570;50.962;5.340;2023-04-15T13:18:36;1.73;;;0.30;;
40847;SDS011;26570;50.962;5.340;2023-04-15T13:21:22;0.50;;;0.20;;
40847;SDS011;26570;50.962;5.340;2023-04-15T13:24:08;0.80;;;0.27;;
40847;SDS011;26570;50.962;5.340;2023-04-15T13:26:54;1.27;;;0.30;;
40847;SDS011;26570;50.962;5.340;2023-04-15T13:29:45;1.30;;;0.30;;
40847;SDS011;26570;50.962;5.340;2023-04-15T13:32:30;0.87;;;0.30;;
40847;SDS011;26570;50.962;5.340;2023-04-15T13:35:17;1.67;;;0.40;;
40847;SDS011;26570;50.962;5.340;2023-04-15T13:38:03;1.23;;;0.40;;
40847;SDS011;26570;50.962;5.340;2023-04-15T13:40:49;0.63;;;0.30;;
40847;SDS011;26570;50.962;5.340;2023-04-15T13:43:34;1.30;;;0.37;;
40847;SDS011;26570;50.962;5.340;2023-04-15T13:46:21;3.17;;;1.10;;
40847;SDS011;26570;50.962;5.340;2023-04-15T13:49:06;0.83;;;0.30;;
40847;SDS011;26570;50.962;5.340;2023-04-15T13:51:52;1.17;;;0.30;;
40847;SDS011;26570;50.962;5.340;2023-04-15T13:54:37;2.63;;;0.30;;
40847;SDS011;26570;50.962;5.340;2023-04-15T13:57:24;2.40;;;0.40;;
40847;SDS011;26570;50.962;5.340;2023-04-15T14:00:09;2.20;;;0.30;;
40847;SDS011;26570;50.962;5.340;2023-04-15T14:02:58;0.80;;;0.30;;
40847;SDS011;26570;50.962;5.340;2023-04-15T14:05:43;1.13;;;0.50;;
40847;SDS011;26570;50.962;5.340;2023-04-15T14:08:29;0.83;;;0.30;;
40847;SDS011;26570;50.962;5.340;2023-04-15T14:11:14;0.90;;;0.30;;
40847;SDS011;26570;50.962;5.340;2023-04-15T14:13:59;0.90;;;0.30;;
40847;SDS011;26570;50.962;5.340;2023-04-15T14:16:45;0.87;;;0.30;;
40847;SDS011;26570;50.962;5.340;2023-04-15T14:19:53;0.90;;;0.30;;
40847;SDS011;26570;50.962;5.340;2023-04-15T14:22:39;0.80;;;0.27;;
40847;SDS011;26570;50.962;5.340;2023-04-15T14:25:24;0.50;;;0.20;;
40847;SDS011;26570;50.962;5.340;2023-04-15T14:28:33;1.10;;;0.20;;
40847;SDS011;26570;50.962;5.340;2023-04-15T14:31:18;2.10;;;0.30;;
40847;SDS011;26570;50.962;5.340;2023-04-15T14:34:04;0.53;;;0.30;;
40847;SDS011;26570;50.962;5.340;2023-04-15T14:36:50;1.13;;;0.30;;
40847;SDS011;26570;50.962;5.340;2023-04-15T14:39:37;1.97;;;0.80;;
40847;SDS011;26570;50.962;5.340;2023-04-15T14:42:25;2.53;;;0.37;;
40847;SDS011;26570;50.962;5.340;2023-04-15T14:45:33;0.87;;;0.30;;
40847;SDS011;26570;50.962;5.340;2023-04-15T14:48:41;1.37;;;0.40;;
40847;SDS011;26570;50.962;5.340;2023-04-15T14:51:27;2.17;;;0.30;;
40847;SDS011;26570;50.962;5.340;2023-04-15T14:54:12;2.83;;;0.40;;
40847;SDS011;26570;50.962;5.340;2023-04-15T14:56:58;0.80;;;0.40;;
40847;SDS011;26570;50.962;5.340;2023-04-15T15:00:08;1.20;;;0.50;;
40847;SDS011;26570;50.962;5.340;2023-04-15T15:02:54;0.73;;;0.30;;
40847;SDS011;26570;50.962;5.340;2023-04-15T15:05:40;1.43;;;0.60;;
40847;SDS011;26570;50.962;5.340;2023-04-15T15:08:49;0.70;;;0.30;;
40847;SDS011;26570;50.962;5.340;2023-04-15T15:11:34;0.90;;;0.30;;
40847;SDS011;26570;50.962;5.340;2023-04-15T15:14:20;1.33;;;0.30;;
40847;SDS011;26570;50.962;5.340;2023-04-15T15:17:05;1.17;;;0.30;;
40847;SDS011;26570;50.962;5.340;2023-04-15T15:19:50;0.90;;;0.20;;
40847;SDS011;26570;50.962;5.340;2023-04-15T15:22:36;3.87;;;0.20;;
40847;SDS011;26570;50.962;5.340;2023-04-15T15:25:21;0.87;;;0.10;;
40847;SDS011;26570;50.962;5.340;2023-04-15T15:28:07;0.77;;;0.20;;
40847;SDS011;26570;50.962;5.340;2023-04-15T15:30:52;0.97;;;0.20;;
40847;SDS011;26570;50.962;5.340;2023-04-15T15:33:38;1.07;;;0.20;;
40847;SDS011;26570;50.962;5.340;2023-04-15T15:36:25;0.80;;;0.20;;
40847;SDS011;26570;50.962;5.340;2023-04-15T15:39:11;3.07;;;0.20;;
40847;SDS011;26570;50.962;5.340;2023-04-15T15:41:56;0.73;;;0.10;;
40847;SDS011;26570;50.962;5.340;2023-04-15T15:44:42;3.87;;;0.10;;
40847;SDS011;26570;50.962;5.340;2023-04-15T15:47:27;0.50;;;0.10;;
40847;SDS011;26570;50.962;5.340;2023-04-15T15:50:12;2.13;;;0.20;;
40847;SDS011;26570;50.962;5.340;2023-04-15T15:52:58;2.43;;;0.20;;
40847;SDS011;26570;50.962;5.340;2023-04-15T15:55:43;1.97;;;0.20;;
40847;SDS011;26570;50.962;5.340;2023-04-15T15:58:29;1.17;;;0.10;;
40847;SDS011;26570;50.962;5.340;2023-04-15T16:01:37;1.80;;;0.20;;
40847;SDS011;26570;50.962;5.340;2023-04-15T16:04:23;0.63;;;0.10;;
40847;SDS011;26570;50.962;5.340;2023-04-15T16:07:09;2.30;;;0.20;;
40847;SDS011;26570;50.962;5.340;2023-04-15T16:10:17;2.07;;;0.20;;
40847;SDS011;26570;50.962;5.340;2023-04-15T16:13:02;1.20;;;0.20;;
40847;SDS011;26570;50.962;5.340;2023-04-15T16:15:49;0.50;;;0.10;;
40847;SDS011;26570;50.962;5.340;2023-04-15T16:18:35;2.00;;;0.10;;
40847;SDS011;26570;50.962;5.340;2023-04-15T16:21:20;2.17;;;0.20;;
40847;SDS011;26570;50.962;5.340;2023-04-15T16:24:08;1.63;;;0.20;;
40847;SDS011;26570;50.962;5.340;2023-04-15T16:26:54;0.97;;;0.10;;
40847;SDS011;26570;50.962;5.340;2023-04-15T16:30:05;0.70;;;0.10;;
40847;SDS011;26570;50.962;5.340;2023-04-15T16:32:51;0.60;;;0.20;;
40847;SDS011;26570;50.962;5.340;2023-04-15T16:35:37;2.10;;;0.30;;
40847;SDS011;26570;50.962;5.340;2023-04-15T16:38:22;0.63;;;0.20;;
40847;SDS011;26570;50.962;5.340;2023-04-15T16:41:07;0.33;;;0.20;;
40847;SDS011;26570;50.962;5.340;2023-04-15T16:43:53;2.43;;;0.27;;
40847;SDS011;26570;50.962;5.340;2023-04-15T16:46:40;0.90;;;0.20;;
40847;SDS011;26570;50.962;5.340;2023-04-15T16:49:26;3.30;;;0.30;;
40847;SDS011;26570;50.962;5.340;2023-04-15T16:52:11;0.90;;;0.20;;
40847;SDS011;26570;50.962;5.340;2023-04-15T16:54:57;1.80;;;0.20;;
40847;SDS011;26570;50.962;5.340;2023-04-15T16:57:42;3.07;;;0.20;;
40847;SDS011;26570;50.962;5.340;2023-04-15T17:00:28;1.23;;;0.20;;
40847;SDS011;26570;50.962;5.340;2023-04-15T17:03:16;0.90;;;0.20;;
40847;SDS011;26570;50.962;5.340;2023-04-15T17:06:24;1.23;;;0.20;;
40847;SDS011;26570;50.962;5.340;2023-04-15T17:09:10;3.23;;;0.20;;
40847;SDS011;26570;50.962;5.340;2023-04-15T17:11:55;2.50;;;0.30;;